Time;durP1;ratioP1;P1;durP2;ratioP2;P2;SDS_P1;SDS_P2;PMS_P1;PMS_P2;Temp;Humidity;BMP_temperature;BMP_pressure;BME280_temperature;BME280_humidity;BME280_pressure;Samples;Min_cycle;Max_cycle;Signal;HPM_P1;HPM_P2
2022/01/17 00:01:16;;;;;;;16.10;4.07;;;7.30;99.90;;;;;;5122525;27;20226;-72
2022/01/17 00:03:44;;;;;;;21.10;2.40;;;7.30;99.90;;;;;;5126975;27;20284;-72
2022/01/17 00:06:11;;;;;;;11.32;2.83;;;7.20;99.90;;;;;;5130435;27;20286;-72
2022/01/17 00:08:43;;;;;;;7.75;2.53;;;7.30;99.90;;;;;;5123679;27;20282;-73
2022/01/17 00:11:14;;;;;;;17.33;2.45;;;7.20;99.90;;;;;;5128132;27;20224;-71
2022/01/17 00:13:42;;;;;;;12.20;2.45;;;7.20;99.90;;;;;;5114664;27;20199;-72
2022/01/17 00:16:12;;;;;;;17.83;2.70;;;7.10;99.90;;;;;;5125468;27;20231;-72
2022/01/17 00:21:28;;;;;;;6.32;2.50;;;7.20;99.90;;;;;;5130730;27;20278;-72
2022/01/17 00:23:56;;;;;;;8.95;2.70;;;7.20;99.90;;;;;;5128577;27;20197;-72
2022/01/17 00:26:23;;;;;;;10.30;2.25;;;7.10;99.90;;;;;;5126986;27;20200;-72
2022/01/17 00:28:50;;;;;;;15.93;2.40;;;7.20;99.90;;;;;;5123252;27;20236;-72
2022/01/17 00:31:17;;;;;;;11.35;3.03;;;7.20;99.90;;;;;;5123864;27;20260;-72
2022/01/17 00:33:43;;;;;;;12.90;3.72;;;7.30;99.90;;;;;;5132839;27;20206;-73
2022/01/17 00:36:11;;;;;;;10.55;2.45;;;7.20;99.90;;;;;;5130515;27;20620;-72
2022/01/17 00:38:38;;;;;;;13.00;3.72;;;7.30;99.90;;;;;;5126828;27;20310;-73
2022/01/17 00:41:07;;;;;;;8.23;2.28;;;7.20;99.90;;;;;;5127337;27;20336;-72
2022/01/17 00:43:35;;;;;;;7.75;2.83;;;7.30;99.90;;;;;;5128133;27;20304;-72
2022/01/17 00:46:02;;;;;;;16.30;3.20;;;7.30;99.90;;;;;;5121676;27;20204;-72
2022/01/17 00:48:29;;;;;;;5.80;2.13;;;7.30;99.90;;;;;;5127689;27;20203;-72
2022/01/17 00:50:56;;;;;;;12.40;3.67;;;7.40;99.90;;;;;;5130482;27;20319;-72
2022/01/17 00:53:24;;;;;;;12.40;3.78;;;7.40;99.90;;;;;;5125886;27;20232;-74
2022/01/17 00:55:51;;;;;;;6.70;2.72;;;7.30;99.90;;;;;;5129344;27;20210;-74
2022/01/17 00:58:19;;;;;;;12.68;3.80;;;7.30;99.90;;;;;;5122759;27;20295;-74
2022/01/17 01:00:46;;;;;;;25.00;4.68;;;7.30;99.90;;;;;;5126962;27;20279;-73
2022/01/17 01:03:13;;;;;;;11.48;3.38;;;7.30;99.90;;;;;;5130016;27;20279;-73
2022/01/17 01:05:40;;;;;;;11.65;2.83;;;7.30;99.90;;;;;;5126612;27;20207;-73
2022/01/17 01:08:07;;;;;;;14.43;2.63;;;7.30;99.90;;;;;;5127487;27;20201;-73
2022/01/17 01:10:34;;;;;;;15.55;3.10;;;7.30;99.90;;;;;;5131735;27;20203;-73
2022/01/17 01:13:02;;;;;;;12.05;3.65;;;7.20;99.90;;;;;;5125073;27;20208;-72
2022/01/17 01:15:45;;;;;;;17.15;3.90;;;7.20;99.90;;;;;;5133000;27;20200;-73
2022/01/17 01:18:16;;;;;;;14.65;2.97;;;7.20;99.90;;;;;;5124155;27;20220;-72
2022/01/17 01:21:05;;;;;;;13.13;3.90;;;7.20;99.90;;;;;;5126562;27;20352;-72
2022/01/17 01:29:01;;;;;;;17.67;3.70;;;7.20;99.90;;;;;;5125003;27;20574;-74
2022/01/17 01:31:40;;;;;;;15.85;3.08;;;7.20;99.90;;;;;;5132361;27;20255;-72
2022/01/17 01:34:08;;;;;;;9.70;3.15;;;7.20;99.90;;;;;;5124645;27;20248;-74
2022/01/17 01:36:36;;;;;;;22.17;4.07;;;7.20;99.90;;;;;;5127420;27;20211;-74
2022/01/17 01:39:04;;;;;;;13.18;3.50;;;7.20;99.90;;;;;;5119971;27;20220;-73
2022/01/17 01:41:36;;;;;;;12.02;4.00;;;7.20;99.90;;;;;;5126226;27;20266;-73
2022/01/17 01:44:04;;;;;;;19.27;3.83;;;7.20;99.90;;;;;;5127825;27;20599;-74
2022/01/17 01:46:32;;;;;;;15.02;3.15;;;7.20;99.90;;;;;;5111663;28;20201;-74
2022/01/17 01:49:00;;;;;;;20.30;5.50;;;7.10;99.90;;;;;;5113289;28;20272;-74
2022/01/17 01:51:27;;;;;;;12.38;3.08;;;7.10;99.90;;;;;;5119233;27;20281;-73
2022/01/17 01:53:54;;;;;;;16.73;2.95;;;7.20;99.90;;;;;;5127404;27;20200;-73
2022/01/17 01:56:21;;;;;;;12.25;3.05;;;7.20;99.90;;;;;;5126606;27;20290;-74
2022/01/17 01:58:48;;;;;;;12.75;2.95;;;7.20;99.90;;;;;;5130417;27;20216;-74
2022/01/17 02:01:16;;;;;;;10.98;2.90;;;7.30;99.90;;;;;;5123965;27;20250;-74
2022/01/17 02:03:44;;;;;;;18.73;3.83;;;7.20;99.90;;;;;;5112112;28;20681;-74
2022/01/17 02:06:11;;;;;;;16.88;3.35;;;7.20;99.90;;;;;;5130711;28;20315;-73
2022/01/17 02:08:38;;;;;;;12.63;2.55;;;7.30;99.90;;;;;;5126133;28;20279;-73
2022/01/17 02:11:07;;;;;;;11.93;3.25;;;7.30;99.90;;;;;;5128074;27;21701;-74
2022/01/17 02:13:34;;;;;;;8.60;3.20;;;7.30;99.90;;;;;;5125108;28;20208;-74
2022/01/17 02:16:01;;;;;;;23.13;4.57;;;7.20;99.90;;;;;;5126943;28;20215;-74
2022/01/17 02:18:30;;;;;;;18.23;2.65;;;7.20;99.90;;;;;;5129666;27;20229;-74
2022/01/17 02:21:12;;;;;;;14.25;3.47;;;7.10;99.90;;;;;;5121037;27;20232;-74
2022/01/17 02:23:40;;;;;;;10.75;3.17;;;7.20;99.90;;;;;;5132065;28;20232;-73
2022/01/17 02:26:07;;;;;;;13.35;3.55;;;7.20;99.90;;;;;;5124307;27;20204;-73
2022/01/17 02:28:36;;;;;;;14.57;2.95;;;7.20;99.90;;;;;;5130477;28;20204;-73
2022/01/17 02:31:05;;;;;;;14.65;3.05;;;7.20;99.90;;;;;;5119911;27;20530;-74
2022/01/17 02:33:34;;;;;;;22.88;3.30;;;7.20;99.90;;;;;;5130027;27;20212;-74
2022/01/17 02:36:02;;;;;;;11.98;3.03;;;7.20;99.90;;;;;;5122120;28;20201;-74
2022/01/17 02:38:30;;;;;;;12.77;3.15;;;7.20;99.90;;;;;;5130581;27;20262;-74
2022/01/17 02:40:58;;;;;;;14.88;2.92;;;7.20;99.90;;;;;;5129615;27;20219;-74
2022/01/17 02:43:27;;;;;;;17.73;4.10;;;7.20;99.90;;;;;;5133107;27;20211;-74
2022/01/17 02:48:40;;;;;;;17.63;2.88;;;7.20;99.90;;;;;;5130746;27;20583;-74
2022/01/17 02:51:11;;;;;;;15.18;2.80;;;7.20;99.90;;;;;;5128594;27;20254;-73
2022/01/17 02:53:40;;;;;;;15.93;3.17;;;7.20;99.90;;;;;;5118170;27;20677;-74
2022/01/17 02:56:09;;;;;;;15.13;3.35;;;7.20;99.90;;;;;;5120087;27;20241;-74
2022/01/17 02:58:40;;;;;;;15.82;4.70;;;7.20;99.90;;;;;;5125244;27;20216;-74
2022/01/17 03:01:10;;;;;;;14.70;3.35;;;7.20;99.90;;;;;;5126097;27;20224;-74
2022/01/17 03:03:37;;;;;;;13.93;3.58;;;7.20;99.90;;;;;;5126530;27;20230;-74
2022/01/17 03:06:05;;;;;;;19.50;3.75;;;7.20;99.90;;;;;;5128281;27;20291;-74
2022/01/17 03:08:35;;;;;;;13.35;3.55;;;7.30;99.90;;;;;;5128358;27;20204;-74
2022/01/17 03:11:06;;;;;;;10.48;2.47;;;7.30;99.90;;;;;;5130973;27;20231;-75
2022/01/17 03:13:36;;;;;;;14.23;2.40;;;7.30;99.90;;;;;;5133327;27;20647;-74
2022/01/17 03:16:08;;;;;;;14.55;2.92;;;7.40;99.90;;;;;;5130473;27;20248;-74
2022/01/17 03:18:39;;;;;;;7.78;3.45;;;7.40;99.90;;;;;;5129669;27;20224;-75
2022/01/17 03:21:07;;;;;;;16.88;3.13;;;7.40;99.90;;;;;;5124555;27;20231;-73
2022/01/17 03:23:36;;;;;;;16.70;4.68;;;7.40;99.90;;;;;;5127224;27;20199;-73
2022/01/17 03:26:03;;;;;;;5.85;2.58;;;7.40;99.90;;;;;;5128434;27;20623;-74
2022/01/17 03:28:31;;;;;;;15.55;2.75;;;7.40;99.90;;;;;;5129407;27;20211;-74
2022/01/17 03:30:58;;;;;;;16.77;3.53;;;7.40;99.90;;;;;;5123057;27;20231;-74
2022/01/17 03:33:25;;;;;;;20.33;3.80;;;7.40;99.90;;;;;;5128431;27;20201;-74
2022/01/17 03:35:53;;;;;;;9.38;3.08;;;7.40;99.90;;;;;;5131487;27;20393;-74
2022/01/17 03:38:23;;;;;;;12.88;2.60;;;7.40;99.90;;;;;;5132413;27;20316;-74
2022/01/17 03:40:52;;;;;;;16.58;2.90;;;7.30;99.90;;;;;;5127386;27;20637;-74
2022/01/17 03:43:23;;;;;;;12.85;3.92;;;7.30;99.90;;;;;;5130430;27;20220;-74
2022/01/17 03:45:51;;;;;;;13.55;2.72;;;7.30;99.90;;;;;;5125030;27;20223;-74
2022/01/17 03:48:19;;;;;;;13.75;4.05;;;7.20;99.90;;;;;;5128454;27;20312;-74
2022/01/17 03:50:46;;;;;;;14.55;4.88;;;7.30;99.90;;;;;;5124353;27;20298;-74
2022/01/17 03:53:14;;;;;;;8.02;2.63;;;7.30;99.90;;;;;;5129979;27;20252;-74
2022/01/17 03:55:40;;;;;;;11.25;3.03;;;7.20;99.90;;;;;;5123879;27;20307;-74
2022/01/17 03:58:09;;;;;;;8.05;2.55;;;7.30;99.90;;;;;;5115022;28;20277;-73
2022/01/17 04:00:39;;;;;;;15.82;3.40;;;7.30;99.90;;;;;;5118596;27;20197;-73
2022/01/17 04:03:07;;;;;;;16.90;3.47;;;7.40;99.90;;;;;;5130133;27;20288;-74
2022/01/17 04:05:36;;;;;;;13.40;4.05;;;7.40;99.90;;;;;;5127474;27;20217;-73
2022/01/17 04:08:04;;;;;;;15.63;3.72;;;7.40;99.90;;;;;;5127936;27;20211;-74
2022/01/17 04:10:31;;;;;;;15.43;3.08;;;7.40;99.90;;;;;;5127190;27;20223;-73
2022/01/17 04:13:01;;;;;;;6.97;2.85;;;7.40;99.90;;;;;;5126189;27;20243;-73
2022/01/17 04:15:30;;;;;;;14.05;2.72;;;7.30;99.90;;;;;;5130349;27;20246;-73
2022/01/17 04:17:57;;;;;;;17.80;4.13;;;7.40;99.90;;;;;;5127708;27;20283;-73
2022/01/17 04:20:27;;;;;;;18.80;3.03;;;7.40;99.90;;;;;;5129205;27;20615;-73
2022/01/17 04:22:55;;;;;;;8.95;3.00;;;7.40;99.90;;;;;;5131918;27;20204;-73
2022/01/17 04:25:23;;;;;;;14.25;2.97;;;7.40;99.90;;;;;;5126998;27;20235;-73
2022/01/17 04:27:52;;;;;;;6.65;2.33;;;7.40;99.90;;;;;;5130056;27;20246;-73
2022/01/17 04:30:20;;;;;;;18.65;3.17;;;7.40;99.90;;;;;;5126253;27;20212;-73
2022/01/17 04:32:49;;;;;;;7.95;2.95;;;7.40;99.90;;;;;;5130075;27;20665;-73
2022/01/17 04:35:20;;;;;;;9.60;2.30;;;7.50;99.90;;;;;;5130575;27;20208;-73
2022/01/17 04:37:49;;;;;;;12.98;3.50;;;7.50;99.90;;;;;;5119546;27;20301;-73
2022/01/17 04:40:18;;;;;;;10.98;3.13;;;7.50;99.90;;;;;;5126327;27;20315;-73
2022/01/17 04:42:48;;;;;;;11.15;3.33;;;7.40;99.90;;;;;;5120270;27;20220;-73
2022/01/17 04:45:18;;;;;;;14.43;3.25;;;7.40;99.90;;;;;;5128364;27;20203;-73
2022/01/17 04:47:49;;;;;;;12.85;3.00;;;7.40;99.90;;;;;;5127549;27;20706;-73
2022/01/17 04:50:20;;;;;;;11.77;2.20;;;7.40;99.90;;;;;;5121690;27;20197;-73
2022/01/17 04:52:48;;;;;;;8.15;2.47;;;7.40;99.90;;;;;;5117124;27;20224;-73
2022/01/17 04:55:17;;;;;;;7.95;1.55;;;7.40;99.90;;;;;;5127855;27;20629;-73
2022/01/17 04:57:45;;;;;;;17.10;4.63;;;7.40;99.90;;;;;;5118778;27;20216;-73
2022/01/17 05:00:14;;;;;;;13.63;3.35;;;7.50;99.90;;;;;;5120582;27;20263;-74
2022/01/17 05:02:43;;;;;;;11.75;3.05;;;7.50;99.90;;;;;;5128150;27;20310;-73
2022/01/17 05:05:12;;;;;;;10.65;2.28;;;7.50;99.90;;;;;;5125340;27;20208;-73
2022/01/17 05:07:40;;;;;;;13.93;3.35;;;7.50;99.90;;;;;;5129392;27;20287;-73
2022/01/17 05:10:09;;;;;;;13.85;2.80;;;7.40;99.90;;;;;;5124916;27;20228;-74
2022/01/17 05:12:37;;;;;;;14.77;3.17;;;7.40;99.90;;;;;;5127906;27;20225;-74
2022/01/17 05:15:06;;;;;;;9.98;2.25;;;7.40;99.90;;;;;;5124945;27;20231;-74
2022/01/17 05:17:44;;;;;;;12.82;3.63;;;7.30;99.90;;;;;;5127313;27;20209;-76
2022/01/17 05:20:13;;;;;;;15.75;4.28;;;7.40;99.90;;;;;;5126648;27;20223;-73
2022/01/17 05:22:41;;;;;;;17.00;4.32;;;7.40;99.90;;;;;;5127257;27;20244;-73
2022/01/17 05:25:12;;;;;;;10.65;3.45;;;7.40;99.90;;;;;;5129584;27;20216;-72
2022/01/17 05:27:39;;;;;;;10.70;2.67;;;7.40;99.90;;;;;;5126580;27;20296;-73
2022/01/17 05:30:10;;;;;;;10.93;2.55;;;7.40;99.90;;;;;;5127993;27;20287;-74
2022/01/17 05:32:37;;;;;;;19.38;4.32;;;7.40;99.90;;;;;;5130603;27;20227;-73
2022/01/17 05:35:06;;;;;;;21.42;4.55;;;7.40;99.90;;;;;;5130340;27;20686;-73
2022/01/17 05:37:35;;;;;;;16.83;2.97;;;7.40;99.90;;;;;;5130821;27;20200;-73
2022/01/17 05:40:04;;;;;;;12.30;3.38;;;7.50;99.90;;;;;;5117081;28;20316;-75
2022/01/17 05:42:31;;;;;;;11.80;3.72;;;7.50;99.90;;;;;;5129181;27;20220;-76
2022/01/17 05:44:58;;;;;;;9.65;3.15;;;7.50;99.90;;;;;;5126780;27;20243;-73
2022/01/17 05:47:26;;;;;;;15.25;3.75;;;7.50;99.90;;;;;;5128009;27;20197;-74
2022/01/17 05:49:53;;;;;;;20.45;3.63;;;7.50;99.90;;;;;;5122366;27;20294;-74
2022/01/17 05:52:20;;;;;;;16.83;3.58;;;7.60;99.90;;;;;;5125941;27;20741;-73
2022/01/17 05:54:48;;;;;;;14.77;3.95;;;7.60;99.90;;;;;;5129134;27;20684;-73
2022/01/17 05:57:16;;;;;;;17.27;2.83;;;7.60;99.90;;;;;;5123207;27;20295;-73
2022/01/17 05:59:44;;;;;;;11.70;4.50;;;7.60;99.90;;;;;;5109960;27;20727;-74
2022/01/17 06:02:11;;;;;;;9.50;3.50;;;7.60;99.90;;;;;;5124508;27;20224;-73
2022/01/17 06:04:37;;;;;;;7.70;3.08;;;7.60;99.90;;;;;;5125440;28;20257;-73
2022/01/17 06:07:06;;;;;;;8.82;4.18;;;7.70;99.90;;;;;;5128756;27;20286;-74
2022/01/17 06:09:33;;;;;;;18.45;4.47;;;7.70;99.90;;;;;;5131795;28;20294;-70
2022/01/17 06:12:02;;;;;;;17.15;5.15;;;7.70;99.90;;;;;;5117026;28;20591;-71
2022/01/17 06:14:30;;;;;;;9.38;3.10;;;7.70;99.90;;;;;;5126713;27;20286;-71
2022/01/17 06:16:57;;;;;;;8.20;2.78;;;7.70;99.90;;;;;;5128277;27;20602;-71
2022/01/17 06:19:24;;;;;;;11.30;3.15;;;7.60;99.90;;;;;;5128465;27;20272;-71
2022/01/17 06:21:51;;;;;;;11.13;2.50;;;7.60;99.90;;;;;;5125105;27;20224;-71
2022/01/17 06:24:25;;;;;;;14.82;2.60;;;7.60;99.90;;;;;;5130852;27;20285;-75
2022/01/17 06:26:52;;;;;;;18.92;3.05;;;7.60;99.90;;;;;;5129906;27;20195;-75
2022/01/17 06:29:21;;;;;;;16.48;4.03;;;7.70;99.90;;;;;;5133042;27;20261;-74
2022/01/17 06:31:48;;;;;;;7.88;2.75;;;7.70;99.90;;;;;;5126467;27;20222;-73
2022/01/17 06:34:15;;;;;;;8.82;3.67;;;7.70;99.90;;;;;;5123364;27;20292;-74
2022/01/17 06:36:42;;;;;;;8.82;3.00;;;7.70;99.90;;;;;;5115913;27;20196;-74
2022/01/17 06:39:12;;;;;;;10.77;3.35;;;7.80;99.90;;;;;;5127989;27;20307;-75
2022/01/17 06:41:40;;;;;;;11.07;3.25;;;7.80;99.90;;;;;;5122644;27;20232;-74
2022/01/17 06:44:09;;;;;;;14.05;3.38;;;7.80;99.90;;;;;;5125130;27;20250;-74
2022/01/17 06:46:38;;;;;;;12.77;3.78;;;7.80;99.90;;;;;;5122904;27;20201;-74
2022/01/17 06:49:05;;;;;;;12.30;3.88;;;7.80;99.90;;;;;;5121659;27;20330;-73
2022/01/17 06:51:32;;;;;;;12.98;3.50;;;7.80;99.90;;;;;;5126893;27;20225;-72
2022/01/17 06:54:02;;;;;;;15.15;3.60;;;7.80;99.90;;;;;;5133998;27;20236;-73
2022/01/17 06:56:31;;;;;;;10.75;3.65;;;7.80;99.90;;;;;;5127206;27;20254;-73
2022/01/17 06:58:58;;;;;;;16.52;4.22;;;7.70;99.90;;;;;;5126582;27;20228;-73
2022/01/17 07:01:25;;;;;;;15.18;2.55;;;7.70;99.90;;;;;;5131647;27;20357;-73
2022/01/17 07:03:55;;;;;;;13.77;3.53;;;7.70;99.90;;;;;;5126823;27;20233;-72
2022/01/17 07:06:22;;;;;;;13.32;3.55;;;7.70;99.90;;;;;;5135233;27;20257;-72
2022/01/17 07:08:49;;;;;;;14.80;4.53;;;7.70;99.90;;;;;;5131092;27;20236;-73
2022/01/17 07:11:17;;;;;;;14.50;4.13;;;7.60;99.90;;;;;;5123909;27;20318;-73
2022/01/17 07:13:44;;;;;;;7.60;2.95;;;7.60;99.90;;;;;;5116647;27;20209;-73
2022/01/17 07:16:11;;;;;;;23.05;4.32;;;7.50;99.90;;;;;;5117382;28;20268;-73
2022/01/17 07:18:37;;;;;;;18.35;4.10;;;7.50;99.90;;;;;;5126065;27;20299;-74
2022/01/17 07:21:08;;;;;;;12.43;3.45;;;7.50;99.90;;;;;;5127145;27;20645;-81
2022/01/17 07:23:35;;;;;;;15.35;3.72;;;7.50;99.90;;;;;;5120520;27;20220;-80
2022/01/17 07:26:03;;;;;;;20.45;4.28;;;7.40;99.90;;;;;;5124429;27;20293;-79
2022/01/17 07:28:30;;;;;;;10.55;3.90;;;7.50;99.90;;;;;;5131991;27;20236;-74
2022/01/17 07:31:03;;;;;;;19.90;5.20;;;7.50;99.90;;;;;;5127587;27;20251;-75
2022/01/17 07:33:32;;;;;;;18.52;4.43;;;7.50;99.90;;;;;;5127572;27;20209;-72
2022/01/17 07:35:59;;;;;;;18.52;4.28;;;7.50;99.90;;;;;;5134661;27;20617;-73
2022/01/17 07:38:27;;;;;;;16.67;4.53;;;7.40;99.90;;;;;;5126998;27;20618;-73
2022/01/17 07:40:56;;;;;;;21.25;5.45;;;7.50;99.90;;;;;;5129422;27;20223;-73
2022/01/17 07:43:23;;;;;;;14.45;5.50;;;7.50;99.90;;;;;;5104555;27;20247;-73
2022/01/17 07:46:03;;;;;;;13.48;5.05;;;7.50;99.90;;;;;;5104544;28;20287;-72
2022/01/17 07:48:58;;;;;;;18.38;5.32;;;7.50;99.90;;;;;;5116160;28;20195;-72
2022/01/17 07:51:26;;;;;;;20.05;4.55;;;7.50;99.90;;;;;;5120104;27;20235;-73
2022/01/17 07:53:56;;;;;;;16.65;5.30;;;7.50;99.90;;;;;;5132479;27;20584;-74
2022/01/17 07:56:24;;;;;;;20.27;5.22;;;7.60;99.90;;;;;;5128206;27;20208;-74
2022/01/17 07:58:51;;;;;;;14.15;5.22;;;7.50;99.90;;;;;;5127174;27;20218;-74
2022/01/17 08:01:19;;;;;;;15.57;3.85;;;7.70;99.90;;;;;;5121371;27;20256;-74
2022/01/17 08:03:46;;;;;;;12.73;4.80;;;7.70;99.90;;;;;;5127745;27;20255;-74
2022/01/17 08:06:13;;;;;;;9.90;4.75;;;7.70;99.90;;;;;;5124487;27;20200;-73
2022/01/17 08:08:43;;;;;;;13.07;4.78;;;7.70;99.90;;;;;;5130936;27;20191;-73
2022/01/17 08:11:12;;;;;;;11.23;4.05;;;7.80;99.90;;;;;;5112499;27;20312;-73
2022/01/17 08:13:39;;;;;;;11.95;3.45;;;7.80;99.90;;;;;;5115615;28;20261;-73
2022/01/17 08:16:06;;;;;;;16.80;5.70;;;7.90;99.90;;;;;;5124543;27;20294;-73
2022/01/17 08:18:33;;;;;;;21.65;4.22;;;7.90;99.90;;;;;;5130054;27;20197;-71
2022/01/17 08:21:03;;;;;;;11.48;4.47;;;7.90;99.90;;;;;;5129783;27;20315;-72
2022/01/17 08:23:31;;;;;;;15.13;4.63;;;8.00;99.90;;;;;;5119228;27;20205;-73
2022/01/17 08:25:58;;;;;;;19.80;6.72;;;8.00;99.90;;;;;;5131761;27;20227;-73
2022/01/17 08:28:26;;;;;;;18.95;5.00;;;8.00;99.90;;;;;;5127344;27;20291;-73
2022/01/17 08:30:53;;;;;;;27.17;5.07;;;8.10;99.90;;;;;;5123952;27;20217;-73
2022/01/17 08:33:21;;;;;;;21.92;3.65;;;8.10;99.90;;;;;;5133052;27;20673;-74
2022/01/17 08:35:48;;;;;;;19.00;5.35;;;8.20;99.90;;;;;;5116585;27;20204;-74
2022/01/17 08:38:18;;;;;;;19.73;6.28;;;8.20;99.90;;;;;;5130701;27;20718;-73
2022/01/17 08:40:45;;;;;;;15.93;5.80;;;8.20;99.90;;;;;;5125332;27;20240;-74
2022/01/17 08:43:12;;;;;;;17.98;4.03;;;8.20;99.90;;;;;;5110553;27;20216;-74
2022/01/17 08:45:44;;;;;;;16.45;4.55;;;8.20;99.90;;;;;;5113566;27;20243;-74
2022/01/17 08:48:12;;;;;;;21.40;7.28;;;8.30;99.90;;;;;;5117824;27;20288;-73
2022/01/17 08:50:42;;;;;;;26.70;4.88;;;8.30;99.90;;;;;;5108610;27;20672;-74
2022/01/17 08:53:13;;;;;;;23.38;5.63;;;8.30;99.90;;;;;;5103410;28;20209;-74
2022/01/17 08:55:42;;;;;;;22.05;5.80;;;8.40;99.90;;;;;;5110251;28;20200;-72
2022/01/17 08:58:11;;;;;;;25.73;6.93;;;8.40;99.90;;;;;;5115167;28;20704;-72
2022/01/17 09:00:38;;;;;;;15.45;5.07;;;8.40;99.90;;;;;;5116219;27;20241;-72
2022/01/17 09:03:10;;;;;;;32.03;5.93;;;8.40;99.90;;;;;;5120736;27;20292;-73
2022/01/17 09:05:38;;;;;;;24.98;5.60;;;8.40;99.90;;;;;;5114535;27;20220;-73
2022/01/17 09:08:08;;;;;;;16.38;5.57;;;8.40;99.90;;;;;;5114410;28;20659;-75
2022/01/17 09:10:36;;;;;;;20.65;5.90;;;8.40;99.90;;;;;;5116199;27;20197;-74
2022/01/17 09:13:04;;;;;;;18.50;8.95;;;8.50;99.90;;;;;;5114693;28;20548;-73
2022/01/17 09:15:30;;;;;;;19.38;5.50;;;8.50;99.90;;;;;;5114138;28;20236;-74
2022/01/17 09:17:57;;;;;;;23.38;7.45;;;8.60;99.90;;;;;;5106444;28;20232;-74
2022/01/17 09:20:26;;;;;;;25.13;7.10;;;8.70;99.90;;;;;;5112546;28;20217;-74
2022/01/17 09:22:57;;;;;;;23.60;6.05;;;8.70;99.90;;;;;;5114211;27;20193;-74
2022/01/17 09:25:24;;;;;;;27.27;7.00;;;8.80;99.90;;;;;;5104857;28;20224;-75
2022/01/17 09:27:51;;;;;;;33.20;6.93;;;8.90;99.90;;;;;;5101074;28;20284;-73
2022/01/17 09:30:18;;;;;;;18.35;5.75;;;8.90;99.90;;;;;;5100950;28;20219;-73
2022/01/17 09:32:46;;;;;;;27.55;7.15;;;9.00;99.90;;;;;;5111136;28;20218;-76
2022/01/17 09:35:14;;;;;;;27.80;6.55;;;9.00;99.90;;;;;;5111271;28;20204;-75
2022/01/17 09:37:42;;;;;;;32.72;8.77;;;9.00;99.90;;;;;;5113429;28;20241;-74
2022/01/17 09:40:11;;;;;;;27.92;7.85;;;9.10;99.90;;;;;;5112651;28;20308;-73
2022/01/17 09:42:38;;;;;;;17.58;6.80;;;9.10;99.90;;;;;;5109980;28;20701;-74
2022/01/17 09:45:10;;;;;;;19.00;5.55;;;9.10;99.90;;;;;;5103728;28;20233;-74
2022/01/17 09:47:39;;;;;;;34.25;7.22;;;9.20;99.90;;;;;;5112191;28;20218;-74
2022/01/17 09:50:08;;;;;;;20.25;7.38;;;9.20;99.90;;;;;;5121016;27;20260;-75
2022/01/17 09:52:39;;;;;;;26.02;5.20;;;9.30;99.90;;;;;;5128267;27;20262;-79
2022/01/17 09:55:12;;;;;;;28.02;9.57;;;9.30;99.90;;;;;;5125294;27;20259;-75
2022/01/17 09:57:42;;;;;;;35.88;7.88;;;9.30;99.90;;;;;;5128094;27;20224;-75
2022/01/17 10:00:13;;;;;;;25.48;5.97;;;9.40;99.90;;;;;;5129674;27;20232;-74
2022/01/17 10:02:40;;;;;;;26.67;8.13;;;9.40;99.90;;;;;;5126832;27;20217;-76
2022/01/17 10:05:09;;;;;;;28.70;8.35;;;9.30;99.90;;;;;;5125470;28;20201;-75
2022/01/17 10:07:54;;;;;;;28.55;7.30;;;9.20;99.90;;;;;;5128123;28;20760;-75
2022/01/17 10:10:41;;;;;;;28.20;6.88;;;9.20;99.90;;;;;;5121739;28;20197;-76
2022/01/17 10:13:12;;;;;;;22.17;7.30;;;9.10;99.90;;;;;;5125749;28;20536;-75
2022/01/17 10:15:55;;;;;;;26.77;5.53;;;9.10;99.90;;;;;;5128777;28;20199;-76
2022/01/17 10:18:28;;;;;;;26.20;7.35;;;9.10;99.90;;;;;;5123542;28;20197;-76
2022/01/17 10:21:02;;;;;;;29.35;7.82;;;9.10;99.90;;;;;;5120932;27;20248;-78
2022/01/17 10:24:02;;;;;;;29.45;7.93;;;9.10;99.90;;;;;;5129827;27;20582;-76
2022/01/17 10:26:55;;;;;;;24.27;6.38;;;9.10;99.90;;;;;;5117617;27;20344;-80
2022/01/17 10:29:55;;;;;;;29.50;7.55;;;9.10;99.90;;;;;;5127921;27;20192;-76
2022/01/17 10:35:31;;;;;;;29.27;6.85;;;9.00;99.90;;;;;;5049445;28;20215;-78
2022/01/17 10:38:05;;;;;;;23.42;5.28;;;8.90;99.90;;;;;;5052816;28;20214;-75
2022/01/17 10:40:36;;;;;;;29.40;7.13;;;8.90;99.90;;;;;;5084714;28;20308;-78
2022/01/17 10:43:07;;;;;;;31.65;8.15;;;9.00;99.90;;;;;;5123117;28;20272;-77
2022/01/17 10:45:40;;;;;;;34.40;8.43;;;9.10;99.90;;;;;;5129561;28;20198;-75
2022/01/17 10:48:08;;;;;;;29.95;8.70;;;9.10;99.90;;;;;;5133997;28;20201;-76
2022/01/17 10:50:48;;;;;;;34.88;10.05;;;9.20;99.90;;;;;;5123465;28;20196;-77
2022/01/17 10:53:19;;;;;;;42.63;11.48;;;9.20;99.90;;;;;;5129213;28;20210;-75
2022/01/17 10:55:49;;;;;;;34.40;11.02;;;9.20;99.90;;;;;;5135181;27;20197;-76
2022/01/17 10:58:23;;;;;;;25.90;9.75;;;9.10;99.90;;;;;;5121121;28;20567;-76
2022/01/17 11:00:52;;;;;;;37.75;10.38;;;9.10;99.90;;;;;;5117389;27;20220;-75
2022/01/17 11:03:22;;;;;;;39.95;12.13;;;9.20;99.90;;;;;;5127573;27;20211;-76
2022/01/17 11:05:52;;;;;;;35.55;9.95;;;9.30;99.90;;;;;;5132029;27;20207;-76
2022/01/17 11:08:22;;;;;;;34.40;6.10;;;9.30;99.90;;;;;;5122819;27;20289;-75
2022/01/17 11:10:54;;;;;;;22.65;8.45;;;9.30;99.90;;;;;;5122595;27;20217;-77
2022/01/17 11:13:25;;;;;;;23.27;7.70;;;9.40;99.90;;;;;;5127903;27;20240;-75
2022/01/17 11:15:54;;;;;;;29.92;7.65;;;9.50;99.90;;;;;;5134325;27;20197;-77
2022/01/17 11:18:28;;;;;;;22.55;6.45;;;9.40;99.90;;;;;;5128354;27;20220;-77
2022/01/17 11:20:56;;;;;;;21.83;5.85;;;9.40;99.90;;;;;;5123401;27;20229;-75
2022/01/17 11:23:24;;;;;;;26.42;7.07;;;9.50;99.90;;;;;;5116763;28;20193;-76
2022/01/17 11:25:54;;;;;;;32.85;8.93;;;9.60;99.90;;;;;;5116793;28;20198;-77
2022/01/17 11:28:26;;;;;;;28.48;7.20;;;9.60;99.90;;;;;;5123098;27;20206;-78
2022/01/17 11:30:57;;;;;;;31.70;5.40;;;9.50;99.90;;;;;;5132757;27;20264;-75
2022/01/17 11:33:24;;;;;;;19.85;6.60;;;9.50;99.90;;;;;;5126386;27;20671;-75
2022/01/17 11:35:52;;;;;;;20.08;4.90;;;9.50;99.90;;;;;;5131802;27;20228;-77
2022/01/17 11:38:26;;;;;;;17.45;4.07;;;9.50;99.90;;;;;;5132890;27;20197;-77
2022/01/17 11:40:56;;;;;;;20.35;5.68;;;9.40;99.90;;;;;;5124607;27;20255;-76
2022/01/17 11:43:33;;;;;;;21.23;5.50;;;9.50;99.90;;;;;;5120859;27;20292;-75
2022/01/17 11:46:03;;;;;;;14.07;5.32;;;9.60;99.90;;;;;;5136681;27;20283;-77
2022/01/17 11:48:36;;;;;;;12.48;5.38;;;9.50;99.90;;;;;;5129960;27;20202;-76
2022/01/17 11:51:15;;;;;;;26.77;6.80;;;9.60;99.90;;;;;;5130383;27;20245;-76
2022/01/17 11:53:45;;;;;;;13.52;4.18;;;9.50;99.90;;;;;;5115262;27;20204;-75
2022/01/17 11:56:30;;;;;;;19.33;5.90;;;9.60;99.90;;;;;;5128824;27;20358;-76
2022/01/17 11:58:58;;;;;;;19.00;4.70;;;9.70;99.90;;;;;;5115722;27;20230;-76
2022/01/17 12:01:25;;;;;;;12.68;4.10;;;9.70;99.90;;;;;;5119098;27;20244;-77
2022/01/17 12:03:53;;;;;;;18.17;4.72;;;9.70;99.90;;;;;;5126486;27;20292;-74
2022/01/17 12:06:24;;;;;;;16.63;4.10;;;9.70;99.90;;;;;;5125177;27;20643;-76
2022/01/17 12:08:52;;;;;;;11.88;3.30;;;9.70;99.90;;;;;;5131016;27;20211;-75
2022/01/17 12:11:31;;;;;;;18.33;4.43;;;9.70;99.90;;;;;;5131895;27;20215;-75
2022/01/17 12:14:27;;;;;;;15.07;5.03;;;9.70;99.90;;;;;;5122365;27;20200;-75
2022/01/17 12:16:55;;;;;;;15.38;4.93;;;9.90;99.90;;;;;;5123778;27;20209;-74
2022/01/17 12:19:22;;;;;;;17.80;5.03;;;9.90;99.90;;;;;;5132520;27;20240;-73
2022/01/17 12:21:54;;;;;;;13.95;4.13;;;9.90;99.90;;;;;;5118122;27;20325;-75
2022/01/17 12:24:39;;;;;;;10.38;3.20;;;9.90;99.90;;;;;;5132069;27;20655;-75
2022/01/17 12:27:17;;;;;;;18.02;3.60;;;10.00;99.90;;;;;;5124831;27;20194;-75
2022/01/17 12:29:52;;;;;;;15.73;4.25;;;10.00;99.90;;;;;;5117483;28;20209;-78
2022/01/17 12:32:49;;;;;;;19.17;4.03;;;10.10;99.90;;;;;;5119112;28;20217;-75
2022/01/17 12:35:25;;;;;;;9.10;3.15;;;10.00;99.90;;;;;;5121419;28;20241;-73
2022/01/17 12:37:54;;;;;;;16.65;3.95;;;10.00;99.90;;;;;;5120069;28;20225;-74
2022/01/17 12:40:23;;;;;;;14.98;4.82;;;10.00;99.90;;;;;;5120749;28;20194;-71
2022/01/17 12:43:02;;;;;;;17.50;3.97;;;10.00;99.90;;;;;;5118952;28;20335;-75
2022/01/17 12:45:34;;;;;;;9.25;3.47;;;9.90;99.90;;;;;;5114728;28;20232;-75
2022/01/17 12:48:02;;;;;;;12.93;4.15;;;9.70;99.90;;;;;;5116630;28;20185;-73
2022/01/17 12:50:32;;;;;;;12.13;3.85;;;9.70;99.90;;;;;;5117256;27;20866;-72
2022/01/17 12:53:01;;;;;;;17.88;3.90;;;9.60;99.90;;;;;;5121633;27;20562;-76
2022/01/17 12:55:36;;;;;;;16.90;3.20;;;9.60;99.90;;;;;;5115091;28;20288;-75
2022/01/17 12:58:13;;;;;;;19.10;4.68;;;9.50;99.90;;;;;;5115295;28;20197;-76
2022/01/17 13:00:50;;;;;;;10.88;3.78;;;9.30;99.90;;;;;;5114721;28;20239;-76
2022/01/17 13:03:19;;;;;;;8.65;3.05;;;9.20;99.90;;;;;;5115944;28;20287;-75
2022/01/17 13:05:46;;;;;;;13.88;4.22;;;9.20;99.90;;;;;;5119622;27;20269;-76
2022/01/17 13:08:14;;;;;;;12.07;2.80;;;9.10;99.90;;;;;;5130618;27;20287;-75
2022/01/17 13:10:41;;;;;;;15.52;4.25;;;9.20;99.90;;;;;;5123099;27;20252;-76
2022/01/17 13:13:15;;;;;;;18.90;3.72;;;9.20;99.90;;;;;;5126490;27;20294;-73
2022/01/17 13:15:55;;;;;;;21.27;4.93;;;9.10;99.90;;;;;;5130801;27;20534;-75